createdAt,value
2023-01-29T00:00:41.806Z,52.33
2023-01-29T00:03:17.864Z,53.87
2023-01-29T00:05:55.537Z,53.03
2023-01-29T00:08:32.414Z,53.10
2023-01-29T00:11:09.521Z,52.07
2023-01-29T00:13:45.372Z,53.10
2023-01-29T00:16:21.525Z,52.73
2023-01-29T00:18:58.013Z,52.87
2023-01-29T00:21:36.700Z,54.43
2023-01-29T00:24:13.121Z,54.17
2023-01-29T00:26:51.550Z,52.87
2023-01-29T00:29:29.039Z,51.73
2023-01-29T00:32:06.193Z,52.47
2023-01-29T00:34:46.645Z,52.70
2023-01-29T00:37:28.102Z,53.03
2023-01-29T00:40:05.157Z,53.13
2023-01-29T00:42:56.820Z,53.73
2023-01-29T00:45:33.540Z,54.03
2023-01-29T00:48:10.579Z,52.43
2023-01-29T00:50:51.573Z,54.03
2023-01-29T00:53:30.001Z,54.37
2023-01-29T00:56:06.178Z,55.13
2023-01-29T00:58:42.287Z,52.40
2023-01-29T01:01:18.723Z,53.43
2023-01-29T01:03:52.632Z,54.20
2023-01-29T01:06:28.700Z,55.27
2023-01-29T01:09:24.233Z,54.43
2023-01-29T01:12:00.814Z,53.87
2023-01-29T01:14:44.709Z,53.37
2023-01-29T01:17:23.828Z,53.97
2023-01-29T01:20:00.275Z,54.73
2023-01-29T01:22:43.727Z,54.37
2023-01-29T01:25:22.887Z,54.83
2023-01-29T01:28:05.723Z,55.80
2023-01-29T01:30:43.807Z,55.60
2023-01-29T01:33:23.469Z,54.47
2023-01-29T01:35:59.379Z,54.43
2023-01-29T01:38:36.747Z,55.80
2023-01-29T01:41:20.191Z,56.17
2023-01-29T01:44:01.580Z,58.40
2023-01-29T01:46:42.316Z,56.83
2023-01-29T01:49:26.251Z,56.10
2023-01-29T01:52:03.916Z,56.70
2023-01-29T01:54:41.413Z,58.13
2023-01-29T01:57:26.567Z,58.50
2023-01-29T02:00:12.893Z,58.30
2023-01-29T02:03:06.338Z,59.13
2023-01-29T02:05:59.409Z,57.93
2023-01-29T02:09:03.044Z,57.60
2023-01-29T02:11:39.519Z,59.53
2023-01-29T02:14:27.526Z,59.47
2023-01-29T02:17:04.788Z,59.57
2023-01-29T02:19:52.752Z,57.23
2023-01-29T02:22:56.982Z,59.47
2023-01-29T02:26:15.245Z,60.80
2023-01-29T02:28:57.645Z,60.73
2023-01-29T02:31:41.176Z,59.47
2023-01-29T02:34:28.000Z,62.47
2023-01-29T02:37:14.883Z,61.60
2023-01-29T02:40:00.020Z,60.87
2023-01-29T02:42:44.870Z,62.40
2023-01-29T02:45:27.531Z,62.53
2023-01-29T02:48:12.129Z,63.03
2023-01-29T02:50:55.931Z,65.10
2023-01-29T02:53:43.221Z,63.73
2023-01-29T02:56:22.671Z,64.57
2023-01-29T02:59:04.980Z,65.77
2023-01-29T03:01:49.575Z,61.57
2023-01-29T03:04:34.376Z,63.50
2023-01-29T03:07:34.907Z,65.87
2023-01-29T03:10:17.349Z,63.57
2023-01-29T03:13:01.376Z,63.33
2023-01-29T03:15:40.447Z,62.97
2023-01-29T03:18:43.019Z,60.53
2023-01-29T03:21:40.529Z,65.63
2023-01-29T03:24:36.452Z,61.73
2023-01-29T03:27:32.163Z,63.93
2023-01-29T03:30:25.088Z,60.73
2023-01-29T03:33:10.043Z,61.43
2023-01-29T03:35:55.396Z,60.17
2023-01-29T03:38:34.077Z,59.07
2023-01-29T03:41:17.774Z,59.97
2023-01-29T03:44:03.862Z,59.63
2023-01-29T03:46:48.927Z,58.23
2023-01-29T03:49:36.231Z,56.67
2023-01-29T03:52:29.936Z,57.93
2023-01-29T03:55:20.489Z,57.03
2023-01-29T03:58:03.823Z,57.73
2023-01-29T04:00:50.828Z,56.00
2023-01-29T04:03:37.514Z,54.37
2023-01-29T04:06:26.768Z,55.07
2023-01-29T04:09:34.787Z,56.77
2023-01-29T04:12:15.448Z,55.53
2023-01-29T04:14:55.140Z,54.23
2023-01-29T04:17:42.290Z,54.87
2023-01-29T04:20:26.408Z,54.83
2023-01-29T04:23:02.748Z,56.30
2023-01-29T04:25:49.488Z,55.13
2023-01-29T04:28:38.183Z,54.37
2023-01-29T04:31:25.540Z,53.83
2023-01-29T04:34:14.600Z,53.77
2023-01-29T04:37:06.948Z,52.67
2023-01-29T04:39:53.320Z,52.53
2023-01-29T04:42:40.301Z,54.17
2023-01-29T04:45:26.553Z,54.37
2023-01-29T04:48:16.968Z,52.50
2023-01-29T04:50:59.439Z,54.60
2023-01-29T04:53:55.014Z,55.07
2023-01-29T04:56:39.178Z,54.60
2023-01-29T04:59:30.211Z,55.13
2023-01-29T05:02:09.858Z,54.20
2023-01-29T05:04:55.060Z,56.40
2023-01-29T05:07:38.755Z,55.03
2023-01-29T05:10:21.214Z,55.27
2023-01-29T05:13:04.188Z,52.97
2023-01-29T05:15:47.128Z,51.53
2023-01-29T05:18:26.588Z,51.70
2023-01-29T05:21:07.549Z,50.70
2023-01-29T05:23:54.829Z,51.80
2023-01-29T05:26:47.347Z,51.50
2023-01-29T05:29:27.179Z,50.63
2023-01-29T05:32:06.097Z,50.33
2023-01-29T05:34:43.980Z,50.73
2023-01-29T05:37:23.033Z,47.90
2023-01-29T05:39:59.092Z,49.67
2023-01-29T05:42:37.958Z,48.93
2023-01-29T05:45:17.040Z,48.50
2023-01-29T05:48:01.412Z,48.53
2023-01-29T05:50:37.742Z,47.97
2023-01-29T05:53:25.827Z,44.60
2023-01-29T05:56:02.193Z,44.53
2023-01-29T05:58:49.650Z,44.30
2023-01-29T06:01:30.796Z,44.97
2023-01-29T06:04:10.267Z,44.43
2023-01-29T06:06:47.077Z,45.83
2023-01-29T06:09:28.311Z,45.63
2023-01-29T06:12:04.883Z,45.33
2023-01-29T06:14:42.351Z,46.03
2023-01-29T06:17:18.431Z,43.20
2023-01-29T06:20:01.414Z,44.83
2023-01-29T06:22:43.688Z,45.77
2023-01-29T06:25:33.225Z,43.90
2023-01-29T06:28:11.908Z,42.67
2023-01-29T06:30:49.777Z,41.67
2023-01-29T06:33:28.063Z,43.50
2023-01-29T06:36:14.661Z,45.03
2023-01-29T06:38:53.001Z,42.73
2023-01-29T06:41:30.050Z,41.33
2023-01-29T06:44:07.858Z,42.00
2023-01-29T06:46:43.800Z,42.67
2023-01-29T06:49:26.405Z,44.17
2023-01-29T06:52:05.156Z,42.27
2023-01-29T06:54:45.822Z,41.23
2023-01-29T06:57:22.309Z,41.10
2023-01-29T07:00:01.828Z,42.60
2023-01-29T07:02:40.894Z,42.30
2023-01-29T07:05:21.064Z,44.03
2023-01-29T07:08:06.638Z,42.80
2023-01-29T07:10:43.586Z,41.90
2023-01-29T07:13:29.030Z,42.50
2023-01-29T07:16:08.323Z,42.07
2023-01-29T07:18:46.509Z,41.80
2023-01-29T07:21:27.272Z,42.27
2023-01-29T07:24:17.645Z,42.20
2023-01-29T07:26:57.544Z,40.40
2023-01-29T07:29:35.805Z,41.40
2023-01-29T07:32:18.854Z,41.73
2023-01-29T07:34:56.612Z,42.80
2023-01-29T07:37:32.896Z,41.13
2023-01-29T07:40:23.762Z,42.50
2023-01-29T07:43:05.598Z,42.13
2023-01-29T07:45:43.685Z,42.00
2023-01-29T07:48:25.601Z,44.20
2023-01-29T07:51:05.217Z,42.63
2023-01-29T07:53:46.218Z,44.53
2023-01-29T07:56:37.478Z,44.67
2023-01-29T07:59:17.637Z,45.03
2023-01-29T08:02:03.886Z,46.97
2023-01-29T08:04:47.111Z,46.67
2023-01-29T08:07:26.090Z,48.57
2023-01-29T08:10:05.374Z,48.27
2023-01-29T08:12:43.870Z,46.97
2023-01-29T08:15:24.599Z,48.67
2023-01-29T08:18:05.686Z,48.33
2023-01-29T08:20:41.863Z,49.03
2023-01-29T08:23:22.362Z,47.63
2023-01-29T08:26:03.659Z,48.87
2023-01-29T08:28:43.910Z,47.43
2023-01-29T08:31:25.919Z,47.97
2023-01-29T08:34:02.127Z,47.80
2023-01-29T08:36:40.155Z,48.73
2023-01-29T08:39:24.361Z,48.17
2023-01-29T08:42:02.542Z,48.37
2023-01-29T08:44:50.382Z,48.93
2023-01-29T08:47:33.077Z,48.83
2023-01-29T08:50:12.867Z,47.97
2023-01-29T08:53:02.290Z,48.23
2023-01-29T08:55:40.394Z,49.87
2023-01-29T08:58:18.409Z,49.20
2023-01-29T09:01:02.372Z,50.07
2023-01-29T09:03:42.575Z,49.97
2023-01-29T09:06:20.468Z,49.73
2023-01-29T09:09:03.930Z,50.70
2023-01-29T09:11:45.880Z,49.93
2023-01-29T09:14:22.238Z,51.35
2023-01-29T09:17:04.744Z,50.33
2023-01-29T09:19:42.452Z,51.30
2023-01-29T09:22:20.035Z,50.37
2023-01-29T09:24:57.002Z,51.67
2023-01-29T09:27:35.674Z,50.03
2023-01-29T09:30:17.192Z,51.43
2023-01-29T09:33:03.893Z,50.73
2023-01-29T09:35:45.165Z,50.03
2023-01-29T09:38:26.627Z,49.43
2023-01-29T09:41:10.263Z,51.03
2023-01-29T09:43:56.516Z,50.23
2023-01-29T09:46:46.132Z,48.37
2023-01-29T09:49:32.073Z,49.13
2023-01-29T09:52:12.273Z,49.77
2023-01-29T09:55:00.312Z,49.40
2023-01-29T09:57:47.079Z,50.47
2023-01-29T10:00:30.384Z,50.37
2023-01-29T10:03:21.021Z,49.80
2023-01-29T10:06:41.090Z,50.20
2023-01-29T10:09:57.284Z,50.80
2023-01-29T10:12:55.506Z,51.60
2023-01-29T10:15:43.434Z,49.07
2023-01-29T10:18:42.984Z,48.73
2023-01-29T10:21:43.998Z,49.70
2023-01-29T10:24:31.158Z,49.73
2023-01-29T10:27:19.461Z,50.77
2023-01-29T10:30:03.775Z,49.60
2023-01-29T10:32:48.035Z,47.90
2023-01-29T10:35:30.028Z,50.70
2023-01-29T10:38:27.598Z,49.30
2023-01-29T10:41:14.655Z,47.87
2023-01-29T10:44:07.254Z,50.30
2023-01-29T10:47:03.740Z,50.77
2023-01-29T10:50:04.904Z,49.30
2023-01-29T10:52:57.339Z,52.27
2023-01-29T10:55:50.564Z,50.97
2023-01-29T10:58:39.522Z,48.90
2023-01-29T11:01:17.086Z,49.33
2023-01-29T11:03:59.994Z,51.00
2023-01-29T11:06:46.199Z,51.53
2023-01-29T11:09:33.719Z,51.40
2023-01-29T11:12:20.946Z,52.13
2023-01-29T11:15:08.180Z,53.33
2023-01-29T11:18:06.978Z,52.87
2023-01-29T11:20:57.416Z,52.47
2023-01-29T11:23:41.727Z,49.13
2023-01-29T11:26:34.687Z,44.80
2023-01-29T11:29:36.084Z,47.70
2023-01-29T11:32:16.823Z,48.60
2023-01-29T11:35:10.497Z,47.90
2023-01-29T11:37:52.055Z,51.23
2023-01-29T11:40:45.755Z,47.07
2023-01-29T11:43:28.253Z,45.17
2023-01-29T11:46:09.309Z,49.73
2023-01-29T11:48:59.217Z,49.20
2023-01-29T11:51:48.193Z,50.13
2023-01-29T11:54:39.623Z,49.57
2023-01-29T11:57:36.094Z,47.50
2023-01-29T12:00:31.279Z,48.33
2023-01-29T12:03:25.085Z,48.27
2023-01-29T12:06:14.678Z,48.57
2023-01-29T12:09:00.295Z,51.97
2023-01-29T12:11:38.541Z,48.97
2023-01-29T12:14:35.490Z,47.27
2023-01-29T12:17:18.823Z,48.90
2023-01-29T12:20:06.136Z,46.60
2023-01-29T12:22:55.409Z,48.43
2023-01-29T12:25:57.936Z,49.93
2023-01-29T12:28:56.216Z,49.00
2023-01-29T12:31:42.619Z,49.60
2023-01-29T12:34:32.805Z,50.40
2023-01-29T12:37:30.151Z,51.57
2023-01-29T12:40:09.647Z,50.70
2023-01-29T12:42:57.242Z,53.27
2023-01-29T12:45:38.562Z,52.30
2023-01-29T12:48:30.248Z,53.73
2023-01-29T12:51:20.811Z,55.33
2023-01-29T12:54:30.469Z,56.63
2023-01-29T12:57:16.192Z,54.37
2023-01-29T13:00:00.195Z,55.57
2023-01-29T13:02:43.167Z,55.97
2023-01-29T13:05:29.296Z,55.77
2023-01-29T13:08:14.095Z,57.10
2023-01-29T13:11:01.363Z,57.77
2023-01-29T13:13:48.069Z,59.13
2023-01-29T13:16:30.525Z,59.70
2023-01-29T13:19:19.698Z,61.77
2023-01-29T13:21:59.962Z,59.20
2023-01-29T13:25:03.959Z,60.00
2023-01-29T13:27:47.830Z,61.83
2023-01-29T13:30:40.571Z,62.83
2023-01-29T13:33:33.757Z,67.00
2023-01-29T13:36:12.437Z,65.90
2023-01-29T13:38:49.916Z,64.43
2023-01-29T13:41:50.959Z,66.07
2023-01-29T13:44:37.709Z,65.40
2023-01-29T13:47:28.802Z,63.53
2023-01-29T13:50:15.532Z,64.23
2023-01-29T13:53:00.557Z,62.60
2023-01-29T13:55:42.250Z,63.03
2023-01-29T13:58:57.448Z,62.57
2023-01-29T14:02:13.839Z,62.77
2023-01-29T14:05:09.026Z,65.30
2023-01-29T14:08:03.871Z,65.37
2023-01-29T14:10:48.283Z,65.27
2023-01-29T14:13:45.146Z,67.73
2023-01-29T14:16:54.480Z,67.43
2023-01-29T14:19:33.772Z,67.27
2023-01-29T14:22:24.204Z,67.73
2023-01-29T14:25:05.419Z,69.27
2023-01-29T14:27:51.887Z,67.80
2023-01-29T14:30:43.944Z,66.50
2023-01-29T14:33:42.539Z,67.77
2023-01-29T14:36:25.547Z,67.40
2023-01-29T14:39:09.126Z,68.43
2023-01-29T14:41:51.931Z,69.37
2023-01-29T14:45:03.832Z,68.53
2023-01-29T14:48:10.879Z,66.77
2023-01-29T14:50:55.957Z,68.47
2023-01-29T14:54:00.878Z,68.77
2023-01-29T14:57:10.939Z,67.30
2023-01-29T14:59:58.569Z,67.50
2023-01-29T15:03:01.600Z,67.87
2023-01-29T15:05:50.535Z,67.07
2023-01-29T15:08:33.034Z,67.03
2023-01-29T15:11:29.902Z,68.53
2023-01-29T15:14:28.584Z,66.60
2023-01-29T15:17:29.571Z,69.53
2023-01-29T15:20:06.853Z,67.80
2023-01-29T15:22:58.714Z,68.27
2023-01-29T15:25:45.479Z,69.03
2023-01-29T15:28:25.984Z,64.97
2023-01-29T15:31:20.332Z,67.07
2023-01-29T15:34:09.486Z,65.67
2023-01-29T15:36:48.645Z,64.13
2023-01-29T15:39:35.166Z,63.37
2023-01-29T15:42:29.513Z,63.90
2023-01-29T15:45:21.254Z,65.30
2023-01-29T15:48:11.327Z,63.03
2023-01-29T15:50:54.698Z,66.23
2023-01-29T15:53:51.476Z,65.30
2023-01-29T15:56:35.432Z,64.43
2023-01-29T15:59:17.433Z,62.60
2023-01-29T16:01:57.070Z,66.07
2023-01-29T16:04:37.752Z,63.97
2023-01-29T16:07:25.676Z,65.53
2023-01-29T16:10:05.790Z,63.90
2023-01-29T16:12:52.787Z,63.70
2023-01-29T16:15:43.639Z,63.77
2023-01-29T16:18:57.881Z,63.87
2023-01-29T16:21:55.509Z,67.67
2023-01-29T16:24:43.407Z,70.80
2023-01-29T16:27:25.340Z,69.23
2023-01-29T16:30:14.649Z,69.83
2023-01-29T16:32:52.651Z,69.77
2023-01-29T16:35:28.991Z,68.67
2023-01-29T16:38:34.966Z,67.90
2023-01-29T16:41:39.860Z,68.77
2023-01-29T16:44:40.912Z,65.67
2023-01-29T16:47:28.748Z,68.90
2023-01-29T16:50:10.112Z,67.50
2023-01-29T16:53:04.154Z,66.97
2023-01-29T16:55:47.052Z,63.13
2023-01-29T16:58:34.625Z,64.57
2023-01-29T17:01:17.299Z,68.23
2023-01-29T17:04:12.981Z,67.63
2023-01-29T17:06:57.607Z,68.90
2023-01-29T17:09:37.695Z,71.30
2023-01-29T17:12:24.058Z,73.07
2023-01-29T17:15:13.748Z,74.87
2023-01-29T17:17:51.542Z,77.93
2023-01-29T17:20:30.953Z,76.73
2023-01-29T17:23:13.905Z,78.23
2023-01-29T17:25:50.145Z,78.97
2023-01-29T17:28:34.974Z,78.77
2023-01-29T17:31:13.797Z,81.47
2023-01-29T17:33:52.946Z,83.57
2023-01-29T17:36:38.462Z,82.17
2023-01-29T17:39:22.627Z,89.87
2023-01-29T17:42:03.951Z,103.83
2023-01-29T17:44:43.252Z,86.00
2023-01-29T17:47:25.258Z,89.30
2023-01-29T17:50:04.929Z,95.20
2023-01-29T17:52:43.767Z,97.37
2023-01-29T17:55:19.865Z,95.77
2023-01-29T17:57:58.294Z,96.13
2023-01-29T18:00:38.551Z,96.70
2023-01-29T18:03:14.881Z,96.80
2023-01-29T18:05:52.834Z,97.77
2023-01-29T18:08:34.070Z,96.87
2023-01-29T18:11:10.676Z,99.50
2023-01-29T18:13:46.573Z,97.47
2023-01-29T18:16:24.876Z,98.40
2023-01-29T18:19:05.962Z,98.03
2023-01-29T18:21:46.452Z,101.33
2023-01-29T18:24:22.546Z,97.23
2023-01-29T18:26:59.500Z,97.00
2023-01-29T18:29:37.468Z,101.07
2023-01-29T18:32:17.019Z,100.70
2023-01-29T18:34:53.194Z,102.47
2023-01-29T18:37:31.074Z,102.07
2023-01-29T18:40:10.461Z,104.87
2023-01-29T18:42:53.886Z,104.83
2023-01-29T18:45:36.669Z,104.23
2023-01-29T18:48:17.466Z,101.73
2023-01-29T18:50:53.402Z,102.27
2023-01-29T18:53:34.253Z,105.70
2023-01-29T18:56:12.690Z,104.87
2023-01-29T18:58:53.201Z,103.70
2023-01-29T19:01:32.084Z,106.73
2023-01-29T19:04:09.743Z,104.53
2023-01-29T19:06:47.166Z,103.77
2023-01-29T19:09:24.578Z,100.83
2023-01-29T19:12:00.344Z,101.33
2023-01-29T19:14:36.165Z,101.47
2023-01-29T19:17:12.121Z,102.43
2023-01-29T19:19:50.650Z,101.93
2023-01-29T19:22:26.343Z,100.23
2023-01-29T19:25:06.095Z,101.50
2023-01-29T19:27:45.023Z,100.83
2023-01-29T19:30:23.369Z,99.40
2023-01-29T19:32:59.756Z,102.63
2023-01-29T19:35:36.972Z,99.23
2023-01-29T19:38:16.890Z,100.03
2023-01-29T19:40:53.249Z,101.53
2023-01-29T19:43:29.424Z,104.83
2023-01-29T19:46:06.464Z,104.07
2023-01-29T19:48:41.773Z,98.43
2023-01-29T19:51:19.337Z,101.30
2023-01-29T19:53:54.461Z,95.43
2023-01-29T19:56:29.677Z,100.43
2023-01-29T19:59:05.215Z,99.73
2023-01-29T20:01:40.878Z,98.70
2023-01-29T20:04:16.637Z,94.70
2023-01-29T20:06:54.296Z,96.40
2023-01-29T20:09:31.908Z,102.77
2023-01-29T20:12:06.937Z,100.07
2023-01-29T20:14:41.980Z,104.23
2023-01-29T20:17:16.786Z,104.77
2023-01-29T20:19:51.837Z,99.50
2023-01-29T20:22:30.881Z,99.03
2023-01-29T20:25:06.327Z,94.93
2023-01-29T20:27:42.634Z,101.63
2023-01-29T20:30:18.838Z,100.93
2023-01-29T20:32:54.148Z,99.00
2023-01-29T20:35:29.253Z,99.50
2023-01-29T20:38:09.356Z,97.37
2023-01-29T20:40:44.430Z,96.83
2023-01-29T20:43:19.388Z,96.83
2023-01-29T20:45:54.305Z,94.10
2023-01-29T20:48:31.714Z,99.50
2023-01-29T20:51:12.169Z,94.27
2023-01-29T20:53:49.941Z,91.53
2023-01-29T20:56:37.368Z,92.50
2023-01-29T20:59:19.199Z,91.37
2023-01-29T21:01:54.389Z,90.93
2023-01-29T21:04:30.046Z,86.57
2023-01-29T21:07:05.510Z,88.63
2023-01-29T21:09:42.301Z,89.83
2023-01-29T21:12:18.293Z,89.47
2023-01-29T21:14:54.184Z,86.87
2023-01-29T21:17:29.460Z,87.87
2023-01-29T21:20:05.656Z,84.83
2023-01-29T21:22:40.953Z,89.90
2023-01-29T21:25:21.460Z,87.77
2023-01-29T21:27:56.425Z,86.83
2023-01-29T21:30:35.787Z,84.50
2023-01-29T21:33:10.690Z,86.57
2023-01-29T21:35:45.815Z,86.50
2023-01-29T21:38:20.447Z,86.10
2023-01-29T21:40:56.948Z,85.57
2023-01-29T21:43:30.115Z,85.70
2023-01-29T21:46:07.658Z,83.47
2023-01-29T21:48:42.865Z,84.00
2023-01-29T21:51:18.893Z,84.10
2023-01-29T21:53:52.877Z,85.63
2023-01-29T21:56:29.684Z,84.20
2023-01-29T21:59:04.998Z,86.43
2023-01-29T22:01:40.374Z,84.90
2023-01-29T22:04:17.324Z,84.40
2023-01-29T22:06:52.009Z,85.83
2023-01-29T22:09:27.896Z,87.57
2023-01-29T22:12:06.314Z,86.80
2023-01-29T22:14:43.813Z,87.07
2023-01-29T22:17:21.602Z,83.87
2023-01-29T22:19:58.056Z,86.60
2023-01-29T22:22:33.133Z,86.83
2023-01-29T22:25:08.729Z,87.10
2023-01-29T22:27:46.464Z,89.63
2023-01-29T22:30:21.564Z,89.30
2023-01-29T22:32:57.097Z,88.30
2023-01-29T22:35:33.779Z,88.33
2023-01-29T22:38:09.134Z,89.73
2023-01-29T22:40:46.850Z,88.83
2023-01-29T22:43:24.516Z,90.20
2023-01-29T22:46:00.417Z,91.70
2023-01-29T22:48:36.292Z,88.83
2023-01-29T22:51:15.415Z,91.70
2023-01-29T22:53:54.359Z,90.43
2023-01-29T22:56:31.044Z,91.00
2023-01-29T22:59:10.465Z,88.30
2023-01-29T23:01:46.330Z,91.17
2023-01-29T23:04:23.838Z,91.03
2023-01-29T23:06:59.637Z,90.47
2023-01-29T23:09:35.214Z,90.20
2023-01-29T23:12:10.939Z,88.53
2023-01-29T23:14:48.339Z,88.03
2023-01-29T23:17:23.816Z,87.70
2023-01-29T23:20:00.650Z,88.80
2023-01-29T23:22:36.183Z,89.40
2023-01-29T23:25:12.399Z,88.73
2023-01-29T23:27:45.858Z,89.60
2023-01-29T23:30:23.763Z,85.90
2023-01-29T23:33:01.129Z,86.93
2023-01-29T23:35:37.335Z,89.80
2023-01-29T23:38:13.521Z,87.87
2023-01-29T23:40:55.251Z,86.77
2023-01-29T23:43:31.407Z,87.17
2023-01-29T23:46:09.575Z,87.10
2023-01-29T23:48:44.997Z,88.63
2023-01-29T23:51:23.727Z,89.47
2023-01-29T23:53:59.733Z,85.93
2023-01-29T23:56:35.729Z,87.80
2023-01-29T23:59:11.708Z,89.23
